Time;durP1;ratioP1;P1;durP2;ratioP2;P2;SDS_P1;SDS_P2;PMS_P1;PMS_P2;Temp;Humidity;BMP_temperature;BMP_pressure;BME280_temperature;BME280_humidity;BME280_pressure;Samples;Min_cycle;Max_cycle;Signal;HPM_P1;HPM_P2
2022/05/09 00:02:12;;;;;;;14.38;8.95;;;;;;;;;;5033830;28;20604;-64
2022/05/09 00:04:38;;;;;;;14.40;8.35;;;;;;;;;;5033759;28;20072;-65
2022/05/09 00:07:04;;;;;;;13.55;8.45;;;;;;;;;;5034572;28;20021;-63
2022/05/09 00:09:31;;;;;;;13.20;8.32;;;;;;;;;;5034482;28;20052;-65
2022/05/09 00:11:56;;;;;;;12.15;8.05;;;;;;;;;;5034017;28;20025;-64
2022/05/09 00:14:23;;;;;;;13.52;7.43;;;;;;;;;;5034232;28;20355;-64
2022/05/09 00:16:51;;;;;;;11.82;7.30;;;;;;;;;;5033906;28;20117;-65
2022/05/09 00:19:18;;;;;;;11.10;7.88;;;;;;;;;;5033938;28;20041;-65
2022/05/09 00:21:44;;;;;;;12.15;7.72;;;;;;;;;;5033727;28;20478;-64
2022/05/09 00:24:14;;;;;;;13.30;8.07;;;;;;;;;;5033521;28;20026;-64
2022/05/09 00:26:41;;;;;;;10.07;7.57;;;;;;;;;;5033348;28;20100;-64
2022/05/09 00:29:09;;;;;;;13.52;8.23;;;;;;;;;;5033450;28;20029;-65
2022/05/09 00:31:35;;;;;;;10.88;7.30;;;;;;;;;;5033603;28;20021;-64
2022/05/09 00:34:01;;;;;;;13.95;8.15;;;;;;;;;;5033073;28;20330;-63
2022/05/09 00:36:26;;;;;;;9.60;7.20;;;;;;;;;;5033928;28;20022;-64
2022/05/09 00:38:52;;;;;;;13.88;8.27;;;;;;;;;;5033675;28;20033;-65
2022/05/09 00:41:40;;;;;;;14.68;7.95;;;;;;;;;;5033523;28;20476;-64
2022/05/09 00:44:09;;;;;;;14.32;7.35;;;;;;;;;;5033688;28;20029;-64
2022/05/09 00:46:41;;;;;;;14.90;7.55;;;;;;;;;;5033453;28;20029;-64
2022/05/09 00:49:25;;;;;;;11.48;7.30;;;;;;;;;;5033451;28;20036;-64
2022/05/09 00:52:01;;;;;;;11.50;7.70;;;;;;;;;;5033519;28;20036;-64
2022/05/09 00:54:31;;;;;;;12.15;7.43;;;;;;;;;;5033491;28;20053;-64
2022/05/09 00:57:04;;;;;;;10.77;7.47;;;;;;;;;;5032577;28;20478;-65
2022/05/09 00:59:32;;;;;;;12.23;7.70;;;;;;;;;;5032923;28;20294;-63
2022/05/09 01:01:57;;;;;;;10.55;7.63;;;;;;;;;;5032820;28;20108;-63
2022/05/09 01:04:26;;;;;;;11.32;7.90;;;;;;;;;;5032617;28;20112;-63
2022/05/09 01:06:55;;;;;;;10.00;7.07;;;;;;;;;;5032784;28;20025;-64
2022/05/09 01:09:20;;;;;;;12.00;7.82;;;;;;;;;;5033167;28;20482;-63
2022/05/09 01:11:47;;;;;;;10.57;7.38;;;;;;;;;;5032899;28;20041;-65
2022/05/09 01:14:15;;;;;;;11.80;6.63;;;;;;;;;;5033079;28;20030;-63
2022/05/09 01:16:41;;;;;;;11.05;7.60;;;;;;;;;;5032887;28;20585;-63
2022/05/09 01:19:21;;;;;;;12.13;7.32;;;;;;;;;;5032808;28;20044;-63
2022/05/09 01:21:47;;;;;;;12.57;7.47;;;;;;;;;;5031615;28;20168;-63
2022/05/09 01:24:16;;;;;;;12.18;6.95;;;;;;;;;;5032370;28;20108;-63
2022/05/09 01:26:42;;;;;;;10.80;6.80;;;;;;;;;;5032195;28;20025;-62
2022/05/09 01:29:19;;;;;;;10.60;6.78;;;;;;;;;;5032118;28;20025;-63
2022/05/09 01:31:47;;;;;;;12.20;6.78;;;;;;;;;;5032656;28;20065;-62
2022/05/09 01:34:15;;;;;;;14.40;7.00;;;;;;;;;;5032720;28;20135;-63
2022/05/09 01:36:40;;;;;;;9.05;6.47;;;;;;;;;;5032759;28;20029;-62
2022/05/09 01:39:10;;;;;;;10.55;6.55;;;;;;;;;;5032480;28;20031;-63
2022/05/09 01:41:44;;;;;;;11.00;6.32;;;;;;;;;;5032669;28;20027;-64
2022/05/09 01:44:12;;;;;;;10.23;6.38;;;;;;;;;;5032710;28;20112;-63
2022/05/09 01:49:29;;;;;;;12.43;6.55;;;;;;;;;;5032566;28;20498;-63
2022/05/09 01:49:32;;;;;;;9.98;6.55;;;;;;;;;;5032527;28;20101;-62
2022/05/09 01:51:59;;;;;;;11.27;6.80;;;;;;;;;;5032386;28;20029;-62
2022/05/09 01:54:26;;;;;;;12.20;6.72;;;;;;;;;;5031672;28;20033;-62
2022/05/09 01:56:51;;;;;;;9.68;6.93;;;;;;;;;;5031870;28;20395;-63
2022/05/09 01:59:18;;;;;;;10.18;6.40;;;;;;;;;;5031731;28;20033;-63
2022/05/09 02:02:08;;;;;;;11.70;7.57;;;;;;;;;;5032295;28;20108;-63
2022/05/09 02:04:35;;;;;;;11.32;7.00;;;;;;;;;;5032399;28;20044;-63
2022/05/09 02:07:01;;;;;;;10.57;6.93;;;;;;;;;;5032360;28;20171;-62
2022/05/09 02:09:27;;;;;;;11.13;6.80;;;;;;;;;;5030945;28;20023;-62
2022/05/09 02:11:53;;;;;;;9.50;6.43;;;;;;;;;;5032311;28;20036;-62
2022/05/09 02:14:18;;;;;;;12.48;7.00;;;;;;;;;;5032292;28;20074;-63
2022/05/09 02:16:44;;;;;;;8.60;6.25;;;;;;;;;;5032211;28;20050;-62
2022/05/09 02:19:10;;;;;;;12.05;6.88;;;;;;;;;;5032026;28;20041;-62
2022/05/09 02:21:35;;;;;;;13.70;7.65;;;;;;;;;;5032290;28;20130;-62
2022/05/09 02:24:02;;;;;;;12.25;7.10;;;;;;;;;;5031996;28;20025;-62
2022/05/09 02:26:27;;;;;;;12.45;6.97;;;;;;;;;;5032019;28;20025;-62
2022/05/09 02:28:53;;;;;;;12.10;7.45;;;;;;;;;;5031554;28;20090;-61
2022/05/09 02:31:21;;;;;;;11.00;7.40;;;;;;;;;;5031639;28;20540;-63
2022/05/09 02:33:47;;;;;;;10.90;6.95;;;;;;;;;;5031493;28;20037;-62
2022/05/09 02:36:13;;;;;;;12.35;7.03;;;;;;;;;;5031845;28;20217;-62
2022/05/09 02:38:39;;;;;;;10.93;7.07;;;;;;;;;;5031798;28;20017;-62
2022/05/09 02:41:05;;;;;;;9.30;5.75;;;;;;;;;;5032163;28;20030;-64
2022/05/09 02:43:34;;;;;;;9.40;6.15;;;;;;;;;;5032119;28;20108;-62
2022/05/09 02:46:03;;;;;;;12.20;6.32;;;;;;;;;;5032118;28;20102;-62
2022/05/09 02:48:35;;;;;;;9.05;6.18;;;;;;;;;;5032005;28;20030;-62
2022/05/09 02:51:01;;;;;;;9.02;5.43;;;;;;;;;;5032093;28;20040;-62
2022/05/09 02:53:26;;;;;;;8.80;5.72;;;;;;;;;;5031862;28;20025;-62
2022/05/09 02:55:52;;;;;;;8.27;5.63;;;;;;;;;;5031876;28;20029;-62
2022/05/09 02:58:18;;;;;;;11.55;5.72;;;;;;;;;;5034478;28;20505;-63
2022/05/09 03:00:43;;;;;;;10.55;5.95;;;;;;;;;;5035012;28;20121;-61
2022/05/09 03:05:53;;;;;;;28.67;15.18;;;;;;;;;;5034730;28;20064;-62
2022/05/09 03:08:18;;;;;;;17.92;9.00;;;;;;;;;;5035466;28;20022;-62
2022/05/09 03:10:45;;;;;;;8.82;5.95;;;;;;;;;;5035510;28;20475;-62
2022/05/09 03:13:12;;;;;;;7.80;5.55;;;;;;;;;;5035372;28;20035;-62
2022/05/09 03:15:41;;;;;;;12.60;6.00;;;;;;;;;;5035279;28;20398;-62
2022/05/09 03:18:08;;;;;;;8.93;5.65;;;;;;;;;;5035014;28;20079;-62
2022/05/09 03:20:34;;;;;;;12.52;5.32;;;;;;;;;;5034818;28;20049;-62
2022/05/09 03:22:59;;;;;;;9.88;4.95;;;;;;;;;;5034442;28;20548;-62
2022/05/09 03:25:26;;;;;;;8.82;4.97;;;;;;;;;;5034730;28;20544;-62
2022/05/09 03:27:52;;;;;;;10.77;4.90;;;;;;;;;;5034393;28;20045;-62
2022/05/09 03:30:18;;;;;;;7.85;5.13;;;;;;;;;;5034387;28;20044;-62
2022/05/09 03:32:44;;;;;;;6.80;4.30;;;;;;;;;;5035056;28;20021;-62
2022/05/09 03:35:10;;;;;;;7.45;4.05;;;;;;;;;;5034648;28;20124;-62
2022/05/09 03:37:37;;;;;;;6.55;4.05;;;;;;;;;;5034882;28;20037;-63
2022/05/09 03:40:04;;;;;;;7.07;4.20;;;;;;;;;;5034891;28;20134;-62
2022/05/09 03:42:30;;;;;;;7.32;4.00;;;;;;;;;;5034767;28;20375;-62
2022/05/09 03:44:55;;;;;;;8.50;4.35;;;;;;;;;;5034647;28;20021;-62
2022/05/09 03:47:21;;;;;;;7.82;4.30;;;;;;;;;;5034785;28;20025;-62
2022/05/09 03:49:46;;;;;;;5.93;3.63;;;;;;;;;;5034485;28;20079;-62
2022/05/09 03:52:12;;;;;;;4.82;3.90;;;;;;;;;;5034794;28;20032;-62
2022/05/09 03:54:37;;;;;;;6.10;3.83;;;;;;;;;;5034561;28;20065;-62
2022/05/09 03:57:03;;;;;;;7.45;4.13;;;;;;;;;;5034044;28;20024;-62
2022/05/09 03:59:29;;;;;;;6.18;4.03;;;;;;;;;;5033685;28;20057;-61
2022/05/09 04:01:56;;;;;;;9.02;3.90;;;;;;;;;;5033971;28;20041;-62
2022/05/09 04:04:22;;;;;;;5.30;3.53;;;;;;;;;;5033694;28;20032;-62
2022/05/09 04:06:51;;;;;;;6.78;3.95;;;;;;;;;;5034455;28;20064;-61
2022/05/09 04:09:17;;;;;;;7.75;3.72;;;;;;;;;;5033265;28;20017;-62
2022/05/09 04:11:43;;;;;;;10.85;4.18;;;;;;;;;;5034284;28;20030;-62
2022/05/09 04:14:08;;;;;;;6.82;3.22;;;;;;;;;;5034192;28;20143;-64
2022/05/09 04:16:49;;;;;;;6.40;2.97;;;;;;;;;;5034052;28;20056;-62
2022/05/09 04:19:15;;;;;;;6.65;3.95;;;;;;;;;;5033419;28;20041;-62
2022/05/09 04:21:41;;;;;;;5.65;3.78;;;;;;;;;;5034266;28;20030;-62
2022/05/09 04:24:07;;;;;;;6.80;3.28;;;;;;;;;;5034005;28;20040;-63
2022/05/09 04:26:32;;;;;;;6.07;3.40;;;;;;;;;;5034054;28;20026;-62
2022/05/09 04:28:59;;;;;;;11.43;4.05;;;;;;;;;;5033321;28;20036;-62
2022/05/09 04:31:26;;;;;;;8.10;5.90;;;;;;;;;;5033315;28;20103;-63
2022/05/09 04:33:54;;;;;;;7.13;5.20;;;;;;;;;;5032944;28;20512;-61
2022/05/09 04:36:20;;;;;;;7.72;4.20;;;;;;;;;;5033201;28;20022;-61
2022/05/09 04:38:49;;;;;;;7.15;4.07;;;;;;;;;;5033750;28;20381;-62
2022/05/09 04:41:15;;;;;;;7.03;3.60;;;;;;;;;;5033502;28;20030;-62
2022/05/09 04:43:40;;;;;;;5.53;3.78;;;;;;;;;;5033329;28;20033;-62
2022/05/09 04:46:06;;;;;;;6.63;3.60;;;;;;;;;;5033720;28;20376;-63
2022/05/09 04:48:32;;;;;;;7.15;3.78;;;;;;;;;;5033250;28;20025;-63
2022/05/09 04:50:58;;;;;;;6.68;3.50;;;;;;;;;;5032230;28;20033;-62
2022/05/09 04:53:25;;;;;;;3.70;2.05;;;;;;;;;;5033591;28;20075;-62
2022/05/09 04:55:51;;;;;;;6.22;2.92;;;;;;;;;;5033298;28;20029;-62
2022/05/09 04:58:19;;;;;;;6.50;4.00;;;;;;;;;;5032721;28;20053;-64
2022/05/09 05:00:45;;;;;;;5.50;2.83;;;;;;;;;;5032707;28;20056;-63
2022/05/09 05:03:11;;;;;;;5.80;3.28;;;;;;;;;;5032496;28;20474;-63
2022/05/09 05:05:37;;;;;;;6.93;3.60;;;;;;;;;;5032643;28;20075;-62
2022/05/09 05:08:03;;;;;;;6.22;2.88;;;;;;;;;;5033467;28;20056;-62
2022/05/09 05:10:30;;;;;;;9.95;3.70;;;;;;;;;;5033139;28;20056;-63
2022/05/09 05:12:58;;;;;;;7.18;3.10;;;;;;;;;;5033163;28;20036;-62
2022/05/09 05:15:24;;;;;;;8.75;3.50;;;;;;;;;;5031824;28;20383;-64
2022/05/09 05:17:50;;;;;;;7.22;3.05;;;;;;;;;;5032625;28;20089;-64
2022/05/09 05:20:16;;;;;;;8.52;2.88;;;;;;;;;;5032450;28;20077;-63
2022/05/09 05:22:45;;;;;;;9.50;2.60;;;;;;;;;;5031762;28;20103;-63
2022/05/09 05:25:12;;;;;;;6.80;2.65;;;;;;;;;;5031799;28;20030;-63
2022/05/09 05:27:38;;;;;;;5.10;2.60;;;;;;;;;;5032088;28;20438;-64
2022/05/09 05:30:06;;;;;;;8.02;2.38;;;;;;;;;;5032069;28;20033;-63
2022/05/09 05:32:36;;;;;;;6.55;2.90;;;;;;;;;;5032016;28;20036;-64
2022/05/09 05:35:07;;;;;;;4.33;2.63;;;;;;;;;;5032623;28;20031;-63
2022/05/09 05:37:33;;;;;;;3.00;1.70;;;;;;;;;;5032723;28;20109;-64
2022/05/09 05:40:00;;;;;;;4.95;2.45;;;;;;;;;;5032468;28;20030;-63
2022/05/09 05:42:27;;;;;;;6.88;3.45;;;;;;;;;;5032412;28;20060;-63
2022/05/09 05:44:53;;;;;;;7.70;2.10;;;;;;;;;;5031348;28;20031;-64
2022/05/09 05:47:20;;;;;;;10.43;2.65;;;;;;;;;;5031217;28;20025;-63
2022/05/09 05:49:46;;;;;;;3.75;2.03;;;;;;;;;;5030935;28;20026;-64
2022/05/09 05:52:13;;;;;;;7.10;2.80;;;;;;;;;;5031267;28;20024;-63
2022/05/09 05:54:41;;;;;;;11.38;3.63;;;;;;;;;;5031189;28;20024;-64
2022/05/09 05:57:28;;;;;;;9.00;2.97;;;;;;;;;;5031265;28;20028;-63
2022/05/09 05:59:56;;;;;;;7.40;3.10;;;;;;;;;;5028914;28;20065;-65
2022/05/09 06:02:23;;;;;;;8.20;2.90;;;;;;;;;;5027442;28;20451;-63
2022/05/09 06:04:49;;;;;;;13.05;3.70;;;;;;;;;;5031151;28;20033;-64
2022/05/09 06:07:16;;;;;;;9.63;3.60;;;;;;;;;;5031310;28;20109;-63
2022/05/09 06:09:44;;;;;;;7.43;3.20;;;;;;;;;;5030647;28;20029;-63
2022/05/09 06:12:10;;;;;;;10.43;3.40;;;;;;;;;;5030613;28;20112;-63
2022/05/09 06:14:38;;;;;;;13.18;3.30;;;;;;;;;;5030925;28;20065;-61
2022/05/09 06:17:04;;;;;;;11.05;3.83;;;;;;;;;;5030970;28;20041;-62
2022/05/09 06:19:30;;;;;;;14.52;4.07;;;;;;;;;;5031404;28;20445;-61
2022/05/09 06:21:57;;;;;;;9.88;3.38;;;;;;;;;;5031235;28;20017;-64
2022/05/09 06:24:22;;;;;;;9.80;3.20;;;;;;;;;;5030899;28;20105;-62
2022/05/09 06:26:49;;;;;;;10.55;3.67;;;;;;;;;;5031077;28;20104;-62
2022/05/09 06:29:14;;;;;;;6.07;3.50;;;;;;;;;;5030788;28;20108;-63
2022/05/09 06:31:40;;;;;;;9.57;3.50;;;;;;;;;;5031859;28;20497;-63
2022/05/09 06:34:07;;;;;;;7.03;3.53;;;;;;;;;;5034881;28;20029;-65
2022/05/09 06:36:37;;;;;;;7.75;3.38;;;;;;;;;;5035004;28;20052;-64
2022/05/09 06:39:03;;;;;;;10.43;3.50;;;;;;;;;;5034784;28;20057;-64
2022/05/09 06:41:29;;;;;;;8.77;3.42;;;;;;;;;;5031425;28;20030;-63
2022/05/09 06:43:55;;;;;;;8.23;3.72;;;;;;;;;;5034520;28;20028;-64
2022/05/09 06:46:21;;;;;;;6.88;3.25;;;;;;;;;;5034302;28;20032;-63
2022/05/09 06:48:46;;;;;;;11.77;2.90;;;;;;;;;;5016988;28;20107;-63
2022/05/09 06:51:12;;;;;;;9.18;3.30;;;;;;;;;;5035890;28;20043;-63
2022/05/09 06:53:38;;;;;;;6.68;3.00;;;;;;;;;;5035971;28;20076;-63
2022/05/09 06:56:04;;;;;;;9.95;2.65;;;;;;;;;;5031023;28;20109;-63
2022/05/09 06:58:30;;;;;;;10.88;2.80;;;;;;;;;;5023614;28;20030;-63
2022/05/09 07:00:56;;;;;;;6.88;2.47;;;;;;;;;;5031953;28;20045;-63
2022/05/09 07:03:22;;;;;;;3.90;2.25;;;;;;;;;;5031073;28;20032;-63
2022/05/09 07:05:49;;;;;;;8.93;3.35;;;;;;;;;;5032141;28;20030;-62
2022/05/09 07:08:14;;;;;;;5.82;2.50;;;;;;;;;;5031919;28;20037;-63
2022/05/09 07:10:40;;;;;;;13.60;3.10;;;;;;;;;;5031888;28;20025;-63
2022/05/09 07:13:06;;;;;;;8.00;2.85;;;;;;;;;;5031061;28;20029;-63
2022/05/09 07:15:34;;;;;;;11.13;3.08;;;;;;;;;;5031949;28;20029;-63
2022/05/09 07:18:00;;;;;;;6.22;2.40;;;;;;;;;;5030003;28;20098;-63
2022/05/09 07:20:30;;;;;;;7.80;2.15;;;;;;;;;;5029893;28;20441;-63
2022/05/09 07:23:08;;;;;;;6.07;2.30;;;;;;;;;;5030203;28;20478;-63
2022/05/09 07:25:34;;;;;;;8.80;2.35;;;;;;;;;;5021452;28;20120;-64
2022/05/09 07:28:00;;;;;;;3.90;1.70;;;;;;;;;;5025446;28;20528;-65
2022/05/09 07:30:28;;;;;;;9.85;3.20;;;;;;;;;;5023440;28;20069;-63
2022/05/09 07:32:54;;;;;;;6.53;1.98;;;;;;;;;;5022601;28;20044;-65
2022/05/09 07:35:20;;;;;;;10.20;2.00;;;;;;;;;;5022863;28;20029;-62
2022/05/09 07:37:47;;;;;;;6.32;2.00;;;;;;;;;;5029245;28;20467;-63
2022/05/09 07:40:14;;;;;;;6.00;2.13;;;;;;;;;;5029962;28;20116;-63
2022/05/09 07:42:42;;;;;;;4.82;1.92;;;;;;;;;;5028897;28;20030;-63
2022/05/09 07:45:09;;;;;;;5.90;2.10;;;;;;;;;;5029801;28;20204;-65
2022/05/09 07:47:34;;;;;;;5.50;1.88;;;;;;;;;;5029347;28;20025;-63
2022/05/09 07:50:00;;;;;;;7.45;2.03;;;;;;;;;;5030343;28;20526;-61
2022/05/09 07:52:26;;;;;;;5.95;2.30;;;;;;;;;;5030018;28;20075;-61
2022/05/09 07:54:51;;;;;;;8.43;2.13;;;;;;;;;;5030345;28;20502;-61
2022/05/09 07:57:17;;;;;;;6.15;2.00;;;;;;;;;;5030688;28;20021;-60
2022/05/09 07:59:43;;;;;;;4.30;2.00;;;;;;;;;;5030434;28;20112;-63
2022/05/09 08:02:09;;;;;;;3.75;2.03;;;;;;;;;;5030824;28;20025;-62
2022/05/09 08:04:34;;;;;;;3.88;1.92;;;;;;;;;;5030176;28;20021;-61
2022/05/09 08:07:01;;;;;;;6.85;1.98;;;;;;;;;;5031291;28;20029;-62
2022/05/09 08:09:28;;;;;;;8.43;2.10;;;;;;;;;;5030880;28;20083;-61
2022/05/09 08:11:54;;;;;;;3.88;2.25;;;;;;;;;;5029636;28;20032;-62
2022/05/09 08:14:20;;;;;;;4.63;2.38;;;;;;;;;;5029255;28;20022;-61
2022/05/09 08:16:45;;;;;;;5.50;2.25;;;;;;;;;;5027729;28;20121;-62
2022/05/09 08:19:14;;;;;;;5.88;2.20;;;;;;;;;;5030399;28;20147;-61
2022/05/09 08:21:40;;;;;;;3.72;1.95;;;;;;;;;;5029908;28;20393;-62
2022/05/09 08:24:10;;;;;;;4.90;2.40;;;;;;;;;;5028588;28;20032;-62
2022/05/09 08:26:36;;;;;;;6.40;2.55;;;;;;;;;;5028873;28;20529;-62
2022/05/09 08:29:02;;;;;;;4.85;2.28;;;;;;;;;;5029687;28;20079;-62
2022/05/09 08:31:28;;;;;;;4.70;2.33;;;;;;;;;;5030706;28;20390;-62
2022/05/09 08:33:56;;;;;;;5.15;2.30;;;;;;;;;;5029865;28;20049;-61
2022/05/09 08:39:08;;;;;;;7.50;2.40;;;;;;;;;;5027391;28;20036;-61
2022/05/09 08:41:55;;;;;;;9.23;2.67;;;;;;;;;;5029904;28;20466;-60
2022/05/09 08:44:29;;;;;;;8.13;2.30;;;;;;;;;;5029378;28;20048;-61
2022/05/09 08:47:14;;;;;;;5.45;2.58;;;;;;;;;;5029589;28;20041;-61
2022/05/09 08:49:55;;;;;;;9.95;2.50;;;;;;;;;;5029576;28;20170;-62
2022/05/09 08:52:53;;;;;;;5.35;2.30;;;;;;;;;;5029627;28;20033;-61
2022/05/09 08:55:36;;;;;;;6.15;2.17;;;;;;;;;;5028551;28;20044;-61
2022/05/09 08:58:11;;;;;;;5.63;2.50;;;;;;;;;;5027373;28;20030;-62
2022/05/09 09:00:38;;;;;;;8.73;3.08;;;;;;;;;;5026959;28;20045;-62
2022/05/09 09:03:24;;;;;;;5.35;2.60;;;;;;;;;;5029661;28;20108;-61
2022/05/09 09:05:53;;;;;;;6.95;2.65;;;;;;;;;;5028998;28;20106;-63
2022/05/09 09:08:45;;;;;;;4.43;2.30;;;;;;;;;;5029770;28;20025;-63
2022/05/09 09:11:18;;;;;;;4.25;2.10;;;;;;;;;;5029548;28;20029;-62
2022/05/09 09:13:46;;;;;;;5.47;2.08;;;;;;;;;;5028558;28;20029;-63
2022/05/09 09:16:12;;;;;;;6.78;2.20;;;;;;;;;;5029577;28;20075;-62
2022/05/09 09:18:59;;;;;;;3.72;1.67;;;;;;;;;;5028711;28;20045;-63
2022/05/09 09:21:49;;;;;;;2.53;1.80;;;;;;;;;;5029655;28;20034;-62
2022/05/09 09:24:32;;;;;;;3.60;1.98;;;;;;;;;;5029161;28;20105;-61
2022/05/09 09:27:31;;;;;;;2.42;1.50;;;;;;;;;;5029131;28;20060;-63
2022/05/09 09:30:01;;;;;;;5.22;2.38;;;;;;;;;;5029229;28;20036;-63
2022/05/09 09:32:27;;;;;;;4.80;2.00;;;;;;;;;;5029527;28;20021;-65
2022/05/09 09:34:59;;;;;;;2.58;1.80;;;;;;;;;;5028632;28;20098;-63
2022/05/09 09:37:44;;;;;;;4.38;2.00;;;;;;;;;;5029108;28;20434;-61
2022/05/09 09:40:10;;;;;;;5.00;1.75;;;;;;;;;;5026780;28;20031;-64
2022/05/09 09:42:36;;;;;;;6.53;1.80;;;;;;;;;;5028885;28;20057;-64
2022/05/09 09:45:15;;;;;;;3.47;1.67;;;;;;;;;;5029607;28;20029;-63
2022/05/09 09:47:40;;;;;;;5.45;1.55;;;;;;;;;;5021435;28;20038;-62
2022/05/09 09:50:17;;;;;;;5.90;2.63;;;;;;;;;;5052378;28;20035;-63
2022/05/09 09:52:52;;;;;;;4.53;1.77;;;;;;;;;;5052766;28;20048;-63
2022/05/09 09:55:32;;;;;;;4.35;2.05;;;;;;;;;;5038560;28;20021;-63
2022/05/09 09:58:18;;;;;;;3.85;1.90;;;;;;;;;;5025608;28;20026;-61
2022/05/09 10:00:43;;;;;;;3.05;1.75;;;;;;;;;;5027331;28;20030;-62
2022/05/09 10:03:22;;;;;;;6.18;2.05;;;;;;;;;;5027114;28;20524;-63
2022/05/09 10:05:50;;;;;;;4.22;2.38;;;;;;;;;;5027878;28;20486;-65
2022/05/09 10:08:37;;;;;;;3.72;2.08;;;;;;;;;;5028156;28;20053;-61
2022/05/09 10:11:05;;;;;;;3.88;1.85;;;;;;;;;;5025981;28;20048;-64
2022/05/09 10:13:45;;;;;;;3.95;1.90;;;;;;;;;;5028335;28;20112;-62
2022/05/09 10:16:24;;;;;;;4.68;1.88;;;;;;;;;;5038392;28;20143;-62
2022/05/09 10:18:52;;;;;;;4.70;2.00;;;;;;;;;;5044672;28;20037;-63
2022/05/09 10:24:50;;;;;;;2.55;1.75;;;;;;;;;;5026349;28;20106;-63
2022/05/09 10:27:28;;;;;;;5.40;1.80;;;;;;;;;;5027806;28;20056;-63
2022/05/09 10:29:59;;;;;;;5.63;2.15;;;;;;;;;;5027459;28;20021;-63
2022/05/09 10:32:48;;;;;;;6.28;1.80;;;;;;;;;;5027342;28;20048;-62
2022/05/09 10:35:23;;;;;;;5.57;1.83;;;;;;;;;;5027760;28;20034;-63
2022/05/09 10:37:51;;;;;;;4.43;1.70;;;;;;;;;;5027544;28;20406;-63
2022/05/09 10:40:33;;;;;;;7.38;1.67;;;;;;;;;;5027102;28;20021;-64
2022/05/09 10:43:05;;;;;;;12.43;2.65;;;;;;;;;;5027634;28;20347;-66
2022/05/09 10:45:41;;;;;;;8.20;2.15;;;;;;;;;;5027705;28;20022;-63
2022/05/09 10:48:35;;;;;;;3.75;1.90;;;;;;;;;;5027423;28;20451;-62
2022/05/09 10:51:10;;;;;;;6.45;1.88;;;;;;;;;;5028366;28;20041;-63
2022/05/09 10:54:04;;;;;;;6.25;2.50;;;;;;;;;;5027313;28;20022;-62
2022/05/09 10:56:49;;;;;;;3.83;1.90;;;;;;;;;;5027766;28;20026;-62
2022/05/09 10:59:28;;;;;;;2.90;1.65;;;;;;;;;;5026128;28;20030;-62
2022/05/09 11:02:29;;;;;;;4.82;1.92;;;;;;;;;;5027404;28;20924;-63
2022/05/09 11:04:55;;;;;;;3.92;2.00;;;;;;;;;;4984378;28;20046;-62
2022/05/09 11:07:24;;;;;;;3.90;1.90;;;;;;;;;;4985293;28;20178;-62
2022/05/09 11:09:57;;;;;;;5.03;1.88;;;;;;;;;;4986224;28;20034;-62
2022/05/09 11:12:46;;;;;;;5.68;1.70;;;;;;;;;;4985687;28;20121;-62
2022/05/09 11:15:21;;;;;;;4.35;2.15;;;;;;;;;;4985728;28;20088;-62
2022/05/09 11:17:59;;;;;;;6.45;1.80;;;;;;;;;;4986737;28;20054;-63
2022/05/09 11:21:01;;;;;;;3.35;1.67;;;;;;;;;;4989032;28;20054;-62
2022/05/09 11:23:57;;;;;;;4.20;2.08;;;;;;;;;;4987385;28;20132;-62
2022/05/09 11:26:29;;;;;;;4.72;1.70;;;;;;;;;;4988388;28;20478;-63
2022/05/09 11:29:35;;;;;;;3.67;1.75;;;;;;;;;;4988584;28;20039;-62
2022/05/09 11:32:01;;;;;;;3.28;1.60;;;;;;;;;;4912597;29;20087;-62
2022/05/09 11:34:54;;;;;;;3.92;1.90;;;;;;;;;;4911996;29;20052;-62
2022/05/09 11:37:29;;;;;;;5.57;2.00;;;;;;;;;;4911972;29;20099;-62
2022/05/09 11:40:26;;;;;;;9.38;2.00;;;;;;;;;;4922250;29;20062;-62
2022/05/09 11:46:07;;;;;;;5.22;1.85;;;;;;;;;;4949529;29;20094;-62
2022/05/09 11:48:42;;;;;;;6.50;1.95;;;;;;;;;;4950977;29;20032;-62
2022/05/09 11:51:26;;;;;;;2.00;1.35;;;;;;;;;;4949887;29;20031;-62
2022/05/09 11:54:04;;;;;;;6.60;2.03;;;;;;;;;;4943999;29;20244;-62
2022/05/09 11:56:31;;;;;;;3.00;1.65;;;;;;;;;;4932644;29;20043;-62
2022/05/09 11:58:58;;;;;;;3.53;1.38;;;;;;;;;;4932303;29;20059;-62
2022/05/09 12:02:03;;;;;;;3.50;1.40;;;;;;;;;;4921994;29;20094;-62
2022/05/09 12:04:46;;;;;;;4.80;1.92;;;;;;;;;;5022178;28;20025;-62
2022/05/09 12:07:21;;;;;;;2.60;1.60;;;;;;;;;;5024513;28;20395;-62
2022/05/09 12:09:58;;;;;;;4.40;1.60;;;;;;;;;;5012950;28;20130;-62
2022/05/09 12:12:41;;;;;;;3.95;1.60;;;;;;;;;;5029548;28;20374;-63
2022/05/09 12:15:15;;;;;;;5.18;1.60;;;;;;;;;;5031353;28;20025;-61
2022/05/09 12:17:43;;;;;;;5.28;1.40;;;;;;;;;;5031177;28;20458;-62
2022/05/09 12:20:37;;;;;;;4.05;1.73;;;;;;;;;;5033567;28;20041;-62
2022/05/09 12:23:10;;;;;;;4.93;1.60;;;;;;;;;;5009467;28;20482;-62
2022/05/09 12:25:36;;;;;;;3.50;1.40;;;;;;;;;;5009354;28;20053;-62
2022/05/09 12:28:26;;;;;;;3.75;1.50;;;;;;;;;;5009646;28;20045;-62
2022/05/09 12:31:02;;;;;;;;;;;;;;;;;;5009041;28;20068;-62
2022/05/09 12:33:36;;;;;;;2.42;1.40;;;;;;;;;;5008801;28;19922;-63
2022/05/09 12:36:07;;;;;;;2.60;1.55;;;;;;;;;;5009863;28;20032;-61
2022/05/09 12:38:37;;;;;;;3.85;1.77;;;;;;;;;;5009531;28;20053;-61
2022/05/09 12:41:18;;;;;;;6.07;1.67;;;;;;;;;;5009225;28;20117;-61
2022/05/09 12:44:05;;;;;;;3.60;1.58;;;;;;;;;;5009083;28;20040;-62
2022/05/09 12:46:36;;;;;;;3.58;1.42;;;;;;;;;;4998585;28;20052;-62
2022/05/09 12:49:05;;;;;;;3.42;1.60;;;;;;;;;;5006320;28;20041;-62
2022/05/09 12:51:39;;;;;;;3.38;1.40;;;;;;;;;;4989090;28;20101;-61
2022/05/09 12:54:10;;;;;;;6.15;1.55;;;;;;;;;;4999514;28;20045;-63
2022/05/09 12:56:39;;;;;;;3.92;1.70;;;;;;;;;;4998777;28;20425;-62
2022/05/09 12:59:10;;;;;;;5.32;1.58;;;;;;;;;;5010616;28;20483;-63
2022/05/09 13:01:41;;;;;;;3.45;1.52;;;;;;;;;;5028833;28;20107;-61
2022/05/09 13:04:37;;;;;;;3.00;1.50;;;;;;;;;;5030468;28;20121;-61
2022/05/09 13:07:05;;;;;;;3.95;1.40;;;;;;;;;;5030501;28;20120;-63
2022/05/09 13:09:36;;;;;;;6.10;1.60;;;;;;;;;;5030660;28;20352;-61
2022/05/09 13:12:08;;;;;;;3.05;1.40;;;;;;;;;;5030950;28;20049;-61
2022/05/09 13:14:45;;;;;;;3.50;1.50;;;;;;;;;;5030831;28;20036;-62
2022/05/09 13:17:24;;;;;;;4.65;1.48;;;;;;;;;;5029789;28;20474;-61
2022/05/09 13:19:52;;;;;;;3.00;1.33;;;;;;;;;;5030071;28;20037;-60
2022/05/09 13:22:23;;;;;;;2.30;1.50;;;;;;;;;;5030225;28;20021;-61
2022/05/09 13:24:52;;;;;;;4.95;1.48;;;;;;;;;;5030143;28;20024;-60
2022/05/09 13:27:21;;;;;;;3.97;1.70;;;;;;;;;;5030080;28;20516;-61
2022/05/09 13:29:50;;;;;;;6.20;2.00;;;;;;;;;;5030194;28;20104;-61
2022/05/09 13:32:35;;;;;;;3.90;1.42;;;;;;;;;;5029731;28;20117;-63
2022/05/09 13:35:03;;;;;;;3.38;1.50;;;;;;;;;;5030249;28;20033;-62
2022/05/09 13:37:34;;;;;;;4.55;1.52;;;;;;;;;;5030031;28;20116;-61
2022/05/09 13:40:09;;;;;;;3.65;1.45;;;;;;;;;;5030282;28;20033;-63
2022/05/09 13:42:39;;;;;;;3.15;1.80;;;;;;;;;;5030457;28;20083;-62
2022/05/09 13:45:26;;;;;;;3.90;1.70;;;;;;;;;;5029994;28;20021;-62
2022/05/09 13:48:15;;;;;;;2.65;1.40;;;;;;;;;;5029682;28;20088;-63
2022/05/09 13:50:43;;;;;;;5.32;1.40;;;;;;;;;;5029474;28;20044;-63
2022/05/09 13:53:17;;;;;;;4.65;1.60;;;;;;;;;;5028156;28;20456;-62
2022/05/09 13:55:45;;;;;;;3.75;1.40;;;;;;;;;;5030100;28;20021;-61
2022/05/09 13:58:18;;;;;;;5.85;1.30;;;;;;;;;;5019158;28;20142;-62
2022/05/09 14:00:47;;;;;;;3.58;1.50;;;;;;;;;;5019819;28;20117;-63
2022/05/09 14:03:18;;;;;;;5.07;1.98;;;;;;;;;;5026743;28;20036;-61
2022/05/09 14:05:44;;;;;;;3.65;1.40;;;;;;;;;;5029856;28;20091;-64
2022/05/09 14:08:11;;;;;;;4.13;1.35;;;;;;;;;;5029629;28;20025;-61
2022/05/09 14:10:37;;;;;;;3.05;1.30;;;;;;;;;;5029779;28;20382;-62
2022/05/09 14:13:24;;;;;;;4.20;1.30;;;;;;;;;;5029658;28;20383;-63
2022/05/09 14:15:57;;;;;;;6.85;1.52;;;;;;;;;;5029523;28;20505;-61
2022/05/09 14:18:30;;;;;;;2.75;1.45;;;;;;;;;;5029040;28;20054;-63
2022/05/09 14:21:03;;;;;;;4.32;1.50;;;;;;;;;;5029716;28;20037;-63
2022/05/09 14:23:28;;;;;;;5.03;1.60;;;;;;;;;;5029482;28;20388;-62
2022/05/09 14:32:06;;;;;;;1.75;0.93;;;;;;;;;;5029707;28;20505;-62
2022/05/09 14:34:54;;;;;;;3.67;1.45;;;;;;;;;;5025380;28;20034;-62
2022/05/09 14:37:25;;;;;;;2.75;1.48;;;;;;;;;;5029203;28;20026;-63
2022/05/09 14:40:14;;;;;;;4.80;1.75;;;;;;;;;;5029179;28;20029;-63
2022/05/09 14:43:00;;;;;;;4.75;1.80;;;;;;;;;;5029102;28;20025;-62
2022/05/09 14:45:32;;;;;;;3.60;1.45;;;;;;;;;;5029040;28;20033;-62
2022/05/09 14:48:00;;;;;;;3.42;1.63;;;;;;;;;;5029187;28;20032;-61
2022/05/09 14:50:33;;;;;;;2.20;1.30;;;;;;;;;;5029080;28;20961;-63
2022/05/09 14:53:11;;;;;;;2.90;1.30;;;;;;;;;;5030105;28;20025;-63
2022/05/09 14:58:23;;;;;;;4.35;1.40;;;;;;;;;;5032396;28;20378;-63
2022/05/09 15:01:03;;;;;;;3.50;1.58;;;;;;;;;;5032926;28;20029;-63
2022/05/09 15:03:32;;;;;;;3.60;1.50;;;;;;;;;;5032624;28;20017;-64
2022/05/09 15:05:58;;;;;;;3.33;1.30;;;;;;;;;;5033142;28;20060;-64
2022/05/09 15:08:24;;;;;;;2.90;1.30;;;;;;;;;;5032559;28;20053;-62
2022/05/09 15:10:52;;;;;;;4.28;1.40;;;;;;;;;;5032583;28;20036;-62
2022/05/09 15:13:19;;;;;;;4.88;1.27;;;;;;;;;;5032398;28;20478;-63
2022/05/09 15:15:49;;;;;;;3.33;1.10;;;;;;;;;;5032684;28;20067;-62
2022/05/09 15:18:15;;;;;;;3.70;1.50;;;;;;;;;;5032237;28;20429;-63
2022/05/09 15:20:41;;;;;;;9.90;2.28;;;;;;;;;;5030082;28;20298;-62
2022/05/09 15:23:07;;;;;;;2.25;1.50;;;;;;;;;;5032306;28;20387;-62
2022/05/09 15:25:33;;;;;;;3.40;1.50;;;;;;;;;;5032515;28;20026;-64